sensor_id;sensor_type;location;lat;lon;timestamp;pressure;altitude;pressure_sealevel;temperature;humidity
51195;BME280;37259;49.972;19.850;2024-01-15T00:00:25;96916.6666666667;;;1.08;72.64
51195;BME280;37259;49.972;19.850;2024-01-15T00:01:25;96913.3333333333;;;1.05;72.74
51195;BME280;37259;49.972;19.850;2024-01-15T00:02:25;96911.6666666667;;;1.06;72.69
51195;BME280;37259;49.972;19.850;2024-01-15T00:03:25;96908.3333333333;;;1.07;72.37
51195;BME280;37259;49.972;19.850;2024-01-15T00:04:25;96903.3333333333;;;1.1;72.2
51195;BME280;37259;49.972;19.850;2024-01-15T00:05:25;96906.6666666667;;;1.1;72.47
51195;BME280;37259;49.972;19.850;2024-01-15T00:06:25;96903.3333333333;;;1.09;72.42
51195;BME280;37259;49.972;19.850;2024-01-15T00:07:25;96906.6666666667;;;1.12;72.25
51195;BME280;37259;49.972;19.850;2024-01-15T00:08:25;96900;;;1.08;72.21
51195;BME280;37259;49.972;19.850;2024-01-15T00:09:25;96903.3333333333;;;1.1;72.15
51195;BME280;37259;49.972;19.850;2024-01-15T00:10:25;96908.3333333333;;;1.11;72.35
51195;BME280;37259;49.972;19.850;2024-01-15T00:11:25;96906.6666666667;;;1.11;72.42
51195;BME280;37259;49.972;19.850;2024-01-15T00:12:25;96905;;;1.11;72.26
51195;BME280;37259;49.972;19.850;2024-01-15T00:13:25;96908.3333333333;;;1.06;72.19
51195;BME280;37259;49.972;19.850;2024-01-15T00:14:25;96903.3333333333;;;1.08;71.91
51195;BME280;37259;49.972;19.850;2024-01-15T00:15:25;96900;;;1.11;71.78
51195;BME280;37259;49.972;19.850;2024-01-15T00:16:25;96900;;;1.11;72
51195;BME280;37259;49.972;19.850;2024-01-15T00:17:25;96895;;;1.12;71.94
51195;BME280;37259;49.972;19.850;2024-01-15T00:18:25;96888.3333333333;;;1.15;71.85
51195;BME280;37259;49.972;19.850;2024-01-15T00:19:25;96888.3333333333;;;1.13;72.11
51195;BME280;37259;49.972;19.850;2024-01-15T00:20:25;96888.3333333333;;;1.11;71.91
51195;BME280;37259;49.972;19.850;2024-01-15T00:21:25;96885;;;1.12;71.8
51195;BME280;37259;49.972;19.850;2024-01-15T00:22:25;96885;;;1.13;71.96
51195;BME280;37259;49.972;19.850;2024-01-15T00:23:25;96881.6666666667;;;1.11;71.39
51195;BME280;37259;49.972;19.850;2024-01-15T00:24:25;96881.6666666667;;;1.1;71.6
51195;BME280;37259;49.972;19.850;2024-01-15T00:25:25;96878.3333333333;;;1.13;71.63
51195;BME280;37259;49.972;19.850;2024-01-15T00:26:25;96876.6666666667;;;1.1;71.59
51195;BME280;37259;49.972;19.850;2024-01-15T00:27:25;96875;;;1.11;71.38
51195;BME280;37259;49.972;19.850;2024-01-15T00:28:25;96875;;;1.12;71.39
51195;BME280;37259;49.972;19.850;2024-01-15T00:29:25;96871.6666666667;;;1.1;71.48
51195;BME280;37259;49.972;19.850;2024-01-15T00:30:25;96871.6666666667;;;1.11;71.42
51195;BME280;37259;49.972;19.850;2024-01-15T00:31:25;96868.3333333333;;;1.13;71.47
51195;BME280;37259;49.972;19.850;2024-01-15T00:32:25;96868.3333333333;;;1.14;71.74
51195;BME280;37259;49.972;19.850;2024-01-15T00:33:25;96868.3333333333;;;1.12;71.6
51195;BME280;37259;49.972;19.850;2024-01-15T00:34:25;96866.6666666667;;;1.14;71.74
51195;BME280;37259;49.972;19.850;2024-01-15T00:35:25;96868.3333333333;;;1.12;71.67
51195;BME280;37259;49.972;19.850;2024-01-15T00:36:25;96868.3333333333;;;1.11;71.78
51195;BME280;37259;49.972;19.850;2024-01-15T00:37:25;96868.3333333333;;;1.13;71.77
51195;BME280;37259;49.972;19.850;2024-01-15T00:38:25;96870;;;1.13;71.49
51195;BME280;37259;49.972;19.850;2024-01-15T00:39:25;96871.6666666667;;;1.1;71.64
51195;BME280;37259;49.972;19.850;2024-01-15T00:40:25;96868.3333333333;;;1.13;71.79
51195;BME280;37259;49.972;19.850;2024-01-15T00:41:25;96866.6666666667;;;1.12;72.03
51195;BME280;37259;49.972;19.850;2024-01-15T00:42:26;96863.3333333333;;;1.08;71.76
51195;BME280;37259;49.972;19.850;2024-01-15T00:43:25;96865;;;1.08;71.75
51195;BME280;37259;49.972;19.850;2024-01-15T00:44:25;96865;;;1.1;71.73
51195;BME280;37259;49.972;19.850;2024-01-15T00:45:25;96861.6666666667;;;1.07;72.12
51195;BME280;37259;49.972;19.850;2024-01-15T00:46:25;96861.6666666667;;;1.05;71.78
51195;BME280;37259;49.972;19.850;2024-01-15T00:47:25;96856.6666666667;;;1.07;71.74
51195;BME280;37259;49.972;19.850;2024-01-15T00:48:25;96858.3333333333;;;1.07;71.76
51195;BME280;37259;49.972;19.850;2024-01-15T00:49:26;96855;;;1.07;71.82
51195;BME280;37259;49.972;19.850;2024-01-15T00:50:25;96853.3333333333;;;1.07;71.58
51195;BME280;37259;49.972;19.850;2024-01-15T00:51:25;96853.3333333333;;;1.08;71.85
51195;BME280;37259;49.972;19.850;2024-01-15T00:52:25;96851.6666666667;;;1.08;71.67
51195;BME280;37259;49.972;19.850;2024-01-15T00:53:25;96848.3333333333;;;1.03;71.04
51195;BME280;37259;49.972;19.850;2024-01-15T00:54:25;96848.3333333333;;;1.07;71.31
51195;BME280;37259;49.972;19.850;2024-01-15T00:55:25;96848.3333333333;;;1.09;71.32
51195;BME280;37259;49.972;19.850;2024-01-15T00:56:25;96845;;;1.02;71.58
51195;BME280;37259;49.972;19.850;2024-01-15T00:57:25;96846.6666666667;;;1.08;71.68
51195;BME280;37259;49.972;19.850;2024-01-15T00:58:25;96850;;;1.09;71.96
51195;BME280;37259;49.972;19.850;2024-01-15T00:59:25;96846.6666666667;;;1.05;71.18
51195;BME280;37259;49.972;19.850;2024-01-15T01:00:25;96848.3333333333;;;1.06;71.08
51195;BME280;37259;49.972;19.850;2024-01-15T01:01:25;96846.6666666667;;;1.04;71.65
51195;BME280;37259;49.972;19.850;2024-01-15T01:02:25;96846.6666666667;;;1.02;71.64
51195;BME280;37259;49.972;19.850;2024-01-15T01:03:25;96843.3333333333;;;1.02;71.32
51195;BME280;37259;49.972;19.850;2024-01-15T01:04:25;96840;;;1.05;71.44
51195;BME280;37259;49.972;19.850;2024-01-15T01:05:25;96845;;;1.07;71.32
51195;BME280;37259;49.972;19.850;2024-01-15T01:06:25;96845;;;1.05;71.19
51195;BME280;37259;49.972;19.850;2024-01-15T01:07:25;96841.6666666667;;;1.02;71.3
51195;BME280;37259;49.972;19.850;2024-01-15T01:08:25;96845;;;1.01;71.16
51195;BME280;37259;49.972;19.850;2024-01-15T01:09:25;96845;;;1.05;71.37
51195;BME280;37259;49.972;19.850;2024-01-15T01:10:25;96845;;;1.03;71.2
51195;BME280;37259;49.972;19.850;2024-01-15T01:11:25;96843.3333333333;;;1.04;70.84
51195;BME280;37259;49.972;19.850;2024-01-15T01:12:25;96848.3333333333;;;1.07;70.87
51195;BME280;37259;49.972;19.850;2024-01-15T01:13:25;96850;;;1.1;70.99
51195;BME280;37259;49.972;19.850;2024-01-15T01:14:25;96848.3333333333;;;1.1;71.08
51195;BME280;37259;49.972;19.850;2024-01-15T01:15:25;96846.6666666667;;;1.06;71.27
51195;BME280;37259;49.972;19.850;2024-01-15T01:16:25;96846.6666666667;;;1.08;71.27
51195;BME280;37259;49.972;19.850;2024-01-15T01:17:25;96846.6666666667;;;1.08;71.29
51195;BME280;37259;49.972;19.850;2024-01-15T01:18:25;96845;;;1.09;71.26
51195;BME280;37259;49.972;19.850;2024-01-15T01:19:25;96846.6666666667;;;1.07;71.02
51195;BME280;37259;49.972;19.850;2024-01-15T01:20:25;96841.6666666667;;;1.08;70.94
51195;BME280;37259;49.972;19.850;2024-01-15T01:21:25;96843.3333333333;;;1.08;70.89
51195;BME280;37259;49.972;19.850;2024-01-15T01:22:25;96841.6666666667;;;1.1;71
51195;BME280;37259;49.972;19.850;2024-01-15T01:23:25;96836.6666666667;;;1.12;70.8
51195;BME280;37259;49.972;19.850;2024-01-15T01:24:25;96838.3333333333;;;1.1;71.46
51195;BME280;37259;49.972;19.850;2024-01-15T01:25:25;96831.6666666667;;;1.09;71.28
51195;BME280;37259;49.972;19.850;2024-01-15T01:26:25;96833.3333333333;;;1.1;70.94
51195;BME280;37259;49.972;19.850;2024-01-15T01:27:25;96833.3333333333;;;1.11;71.13
51195;BME280;37259;49.972;19.850;2024-01-15T01:28:25;96828.3333333333;;;1.06;71
51195;BME280;37259;49.972;19.850;2024-01-15T01:29:25;96826.6666666667;;;1.07;70.79
51195;BME280;37259;49.972;19.850;2024-01-15T01:30:25;96830;;;1.07;70.96
51195;BME280;37259;49.972;19.850;2024-01-15T01:31:25;96828.3333333333;;;1.08;71
51195;BME280;37259;49.972;19.850;2024-01-15T01:32:25;96826.6666666667;;;1.11;71.26
51195;BME280;37259;49.972;19.850;2024-01-15T01:33:25;96828.3333333333;;;1.11;71.19
51195;BME280;37259;49.972;19.850;2024-01-15T01:34:25;96826.6666666667;;;1.1;70.81
51195;BME280;37259;49.972;19.850;2024-01-15T01:35:25;96825;;;1.03;71.24
51195;BME280;37259;49.972;19.850;2024-01-15T01:36:25;96825;;;1.05;71.16
51195;BME280;37259;49.972;19.850;2024-01-15T01:37:25;96825;;;1.05;71.01
51195;BME280;37259;49.972;19.850;2024-01-15T01:38:25;96820;;;1.03;70.73
51195;BME280;37259;49.972;19.850;2024-01-15T01:39:25;96820;;;1.06;70.7
51195;BME280;37259;49.972;19.850;2024-01-15T01:40:25;96820;;;1.08;70.77
51195;BME280;37259;49.972;19.850;2024-01-15T01:41:25;96813.3333333333;;;1.12;70.81
51195;BME280;37259;49.972;19.850;2024-01-15T01:42:25;96813.3333333333;;;1.08;70.93
51195;BME280;37259;49.972;19.850;2024-01-15T01:43:25;96810;;;1.07;70.75
51195;BME280;37259;49.972;19.850;2024-01-15T01:44:25;96810;;;1.07;71.27
51195;BME280;37259;49.972;19.850;2024-01-15T01:45:25;96805;;;1.04;71.2
51195;BME280;37259;49.972;19.850;2024-01-15T01:46:25;96803.3333333333;;;1.05;71.07
51195;BME280;37259;49.972;19.850;2024-01-15T01:47:25;96798.3333333333;;;1.07;71.14
51195;BME280;37259;49.972;19.850;2024-01-15T01:48:25;96796.6666666667;;;1.07;71.13
51195;BME280;37259;49.972;19.850;2024-01-15T01:49:25;96796.6666666667;;;1.06;70.84
51195;BME280;37259;49.972;19.850;2024-01-15T01:50:25;96793.3333333333;;;1.06;70.82
51195;BME280;37259;49.972;19.850;2024-01-15T01:51:25;96790;;;1.05;70.99
51195;BME280;37259;49.972;19.850;2024-01-15T01:52:25;96791.6666666667;;;1.05;71.24
51195;BME280;37259;49.972;19.850;2024-01-15T01:53:25;96790;;;1.06;71.32
51195;BME280;37259;49.972;19.850;2024-01-15T01:54:25;96788.3333333333;;;1.05;71.02
51195;BME280;37259;49.972;19.850;2024-01-15T01:55:26;96785;;;1.02;70.96
51195;BME280;37259;49.972;19.850;2024-01-15T01:56:25;96783.3333333333;;;1;70.95
51195;BME280;37259;49.972;19.850;2024-01-15T01:57:25;96781.6666666667;;;1.04;71.11
51195;BME280;37259;49.972;19.850;2024-01-15T01:58:25;96778.3333333333;;;1.02;71.29
51195;BME280;37259;49.972;19.850;2024-01-15T01:59:25;96776.6666666667;;;1.05;70.95
51195;BME280;37259;49.972;19.850;2024-01-15T02:00:25;96775;;;1.06;71.28
51195;BME280;37259;49.972;19.850;2024-01-15T02:01:25;96776.6666666667;;;1.07;71.07
51195;BME280;37259;49.972;19.850;2024-01-15T02:02:25;96778.3333333333;;;1.07;71.15
51195;BME280;37259;49.972;19.850;2024-01-15T02:03:25;96775;;;1.07;71.37
51195;BME280;37259;49.972;19.850;2024-01-15T02:04:25;96771.6666666667;;;1.05;71.49
51195;BME280;37259;49.972;19.850;2024-01-15T02:05:25;96773.3333333333;;;1.03;71.16
51195;BME280;37259;49.972;19.850;2024-01-15T02:06:25;96771.6666666667;;;1.03;71.02
51195;BME280;37259;49.972;19.850;2024-01-15T02:07:25;96770;;;1.04;71.35
51195;BME280;37259;49.972;19.850;2024-01-15T02:08:25;96765;;;1.04;71.43
51195;BME280;37259;49.972;19.850;2024-01-15T02:09:25;96763.3333333333;;;1.03;71.41
51195;BME280;37259;49.972;19.850;2024-01-15T02:10:25;96765;;;1.03;71.36
51195;BME280;37259;49.972;19.850;2024-01-15T02:11:25;96761.6666666667;;;1;70.85
51195;BME280;37259;49.972;19.850;2024-01-15T02:12:25;96766.6666666667;;;1.02;70.86
51195;BME280;37259;49.972;19.850;2024-01-15T02:13:25;96763.3333333333;;;1.04;71.11
51195;BME280;37259;49.972;19.850;2024-01-15T02:14:25;96763.3333333333;;;1.03;71.58
51195;BME280;37259;49.972;19.850;2024-01-15T02:15:25;96761.6666666667;;;1.02;71.73
51195;BME280;37259;49.972;19.850;2024-01-15T02:16:25;96758.3333333333;;;0.99;71.62
51195;BME280;37259;49.972;19.850;2024-01-15T02:17:25;96756.6666666667;;;1.03;71.77
51195;BME280;37259;49.972;19.850;2024-01-15T02:18:25;96755;;;1.01;71.54
51195;BME280;37259;49.972;19.850;2024-01-15T02:19:25;96755;;;1;71.33
51195;BME280;37259;49.972;19.850;2024-01-15T02:20:25;96750;;;1;71.39
51195;BME280;37259;49.972;19.850;2024-01-15T02:21:25;96746.6666666667;;;0.97;71
51195;BME280;37259;49.972;19.850;2024-01-15T02:22:25;96743.3333333333;;;0.95;71.15
51195;BME280;37259;49.972;19.850;2024-01-15T02:23:25;96745;;;0.93;71.48
51195;BME280;37259;49.972;19.850;2024-01-15T02:24:25;96745;;;0.95;71.53
51195;BME280;37259;49.972;19.850;2024-01-15T02:25:25;96743.3333333333;;;0.93;71.48
51195;BME280;37259;49.972;19.850;2024-01-15T02:26:25;96740;;;0.96;71.25
51195;BME280;37259;49.972;19.850;2024-01-15T02:27:25;96743.3333333333;;;0.97;71.21
51195;BME280;37259;49.972;19.850;2024-01-15T02:28:25;96738.3333333333;;;0.96;71.32
51195;BME280;37259;49.972;19.850;2024-01-15T02:29:25;96736.6666666667;;;0.97;71.74
51195;BME280;37259;49.972;19.850;2024-01-15T02:30:25;96738.3333333333;;;0.93;71.8
51195;BME280;37259;49.972;19.850;2024-01-15T02:31:25;96735;;;0.93;71.37
51195;BME280;37259;49.972;19.850;2024-01-15T02:32:25;96736.6666666667;;;0.96;71.57
51195;BME280;37259;49.972;19.850;2024-01-15T02:33:25;96738.3333333333;;;0.96;71.5
51195;BME280;37259;49.972;19.850;2024-01-15T02:34:25;96740;;;0.96;71.51
51195;BME280;37259;49.972;19.850;2024-01-15T02:35:25;96741.6666666667;;;0.99;71.47
51195;BME280;37259;49.972;19.850;2024-01-15T02:36:25;96733.3333333333;;;0.98;71.32
51195;BME280;37259;49.972;19.850;2024-01-15T02:37:25;96730;;;0.98;71.53
51195;BME280;37259;49.972;19.850;2024-01-15T02:38:25;96726.6666666667;;;0.98;71.64
51195;BME280;37259;49.972;19.850;2024-01-15T02:39:25;96726.6666666667;;;0.99;71.65
51195;BME280;37259;49.972;19.850;2024-01-15T02:40:26;96721.6666666667;;;0.91;71.65
51195;BME280;37259;49.972;19.850;2024-01-15T02:41:25;96723.3333333333;;;0.92;71.27
51195;BME280;37259;49.972;19.850;2024-01-15T02:42:26;96718.3333333333;;;0.91;71.39
51195;BME280;37259;49.972;19.850;2024-01-15T02:43:25;96713.3333333333;;;0.91;71.38
51195;BME280;37259;49.972;19.850;2024-01-15T02:44:25;96711.6666666667;;;0.88;71.37
51195;BME280;37259;49.972;19.850;2024-01-15T02:45:25;96708.3333333333;;;0.84;71.49
51195;BME280;37259;49.972;19.850;2024-01-15T02:46:25;96703.3333333333;;;0.81;71.36
51195;BME280;37259;49.972;19.850;2024-01-15T02:47:25;96701.6666666667;;;0.82;71.09
51195;BME280;37259;49.972;19.850;2024-01-15T02:48:25;96706.6666666667;;;0.85;71.42
51195;BME280;37259;49.972;19.850;2024-01-15T02:49:25;96705;;;0.75;71.69
51195;BME280;37259;49.972;19.850;2024-01-15T02:50:25;96701.6666666667;;;0.76;71.6
51195;BME280;37259;49.972;19.850;2024-01-15T02:51:25;96700;;;0.75;71.39
51195;BME280;37259;49.972;19.850;2024-01-15T02:52:25;96701.6666666667;;;0.76;71.47
51195;BME280;37259;49.972;19.850;2024-01-15T02:53:25;96700;;;0.77;71.27
51195;BME280;37259;49.972;19.850;2024-01-15T02:54:25;96703.3333333333;;;0.74;71.22
51195;BME280;37259;49.972;19.850;2024-01-15T02:55:25;96703.3333333333;;;0.77;71.27
51195;BME280;37259;49.972;19.850;2024-01-15T02:56:25;96701.6666666667;;;0.72;71.42
51195;BME280;37259;49.972;19.850;2024-01-15T02:57:25;96701.6666666667;;;0.75;71.33
51195;BME280;37259;49.972;19.850;2024-01-15T02:58:25;96700;;;0.77;71.21
51195;BME280;37259;49.972;19.850;2024-01-15T02:59:25;96700;;;0.77;71.31
51195;BME280;37259;49.972;19.850;2024-01-15T03:00:25;96705;;;0.72;71.78
51195;BME280;37259;49.972;19.850;2024-01-15T03:01:25;96700;;;0.75;71.33
51195;BME280;37259;49.972;19.850;2024-01-15T03:02:25;96701.6666666667;;;0.79;71.1
51195;BME280;37259;49.972;19.850;2024-01-15T03:03:25;96700;;;0.79;71.62
51195;BME280;37259;49.972;19.850;2024-01-15T03:04:25;96696.6666666667;;;0.81;71.66
51195;BME280;37259;49.972;19.850;2024-01-15T03:05:25;96695;;;0.8;71.42
51195;BME280;37259;49.972;19.850;2024-01-15T03:06:25;96693.3333333333;;;0.77;71.32
51195;BME280;37259;49.972;19.850;2024-01-15T03:07:25;96698.3333333333;;;0.79;71.33
51195;BME280;37259;49.972;19.850;2024-01-15T03:08:25;96693.3333333333;;;0.79;71.57
51195;BME280;37259;49.972;19.850;2024-01-15T03:09:25;96696.6666666667;;;0.77;71.26
51195;BME280;37259;49.972;19.850;2024-01-15T03:10:25;96698.3333333333;;;0.79;70.81
51195;BME280;37259;49.972;19.850;2024-01-15T03:11:25;96700;;;0.8;70.97
51195;BME280;37259;49.972;19.850;2024-01-15T03:12:25;96693.3333333333;;;0.8;70.87
51195;BME280;37259;49.972;19.850;2024-01-15T03:13:25;96693.3333333333;;;0.83;70.89
51195;BME280;37259;49.972;19.850;2024-01-15T03:14:25;96688.3333333333;;;0.81;70.56
51195;BME280;37259;49.972;19.850;2024-01-15T03:15:25;96693.3333333333;;;0.82;70.96
51195;BME280;37259;49.972;19.850;2024-01-15T03:16:25;96690;;;0.84;70.92
51195;BME280;37259;49.972;19.850;2024-01-15T03:17:25;96690;;;0.8;71.04
51195;BME280;37259;49.972;19.850;2024-01-15T03:18:25;96688.3333333333;;;0.79;70.89
51195;BME280;37259;49.972;19.850;2024-01-15T03:19:25;96690;;;0.8;70.88
51195;BME280;37259;49.972;19.850;2024-01-15T03:20:25;96686.6666666667;;;0.81;70.98
51195;BME280;37259;49.972;19.850;2024-01-15T03:21:25;96688.3333333333;;;0.84;70.79
51195;BME280;37259;49.972;19.850;2024-01-15T03:22:25;96685;;;0.81;70.93
51195;BME280;37259;49.972;19.850;2024-01-15T03:23:25;96686.6666666667;;;0.83;70.71
51195;BME280;37259;49.972;19.850;2024-01-15T03:24:25;96686.6666666667;;;0.83;71.41
51195;BME280;37259;49.972;19.850;2024-01-15T03:25:25;96686.6666666667;;;0.85;71.34
51195;BME280;37259;49.972;19.850;2024-01-15T03:26:25;96688.3333333333;;;0.8;71.39
51195;BME280;37259;49.972;19.850;2024-01-15T03:27:25;96688.3333333333;;;0.77;71.49
51195;BME280;37259;49.972;19.850;2024-01-15T03:28:25;96686.6666666667;;;0.77;71.43
51195;BME280;37259;49.972;19.850;2024-01-15T03:29:25;96685;;;0.76;70.92
51195;BME280;37259;49.972;19.850;2024-01-15T03:30:25;96683.3333333333;;;0.8;71.02
51195;BME280;37259;49.972;19.850;2024-01-15T03:31:25;96681.6666666667;;;0.83;70.58
51195;BME280;37259;49.972;19.850;2024-01-15T03:32:25;96683.3333333333;;;0.83;71.18
51195;BME280;37259;49.972;19.850;2024-01-15T03:33:25;96681.6666666667;;;0.81;71.15
51195;BME280;37259;49.972;19.850;2024-01-15T03:34:25;96683.3333333333;;;0.81;71.01
51195;BME280;37259;49.972;19.850;2024-01-15T03:35:25;96681.6666666667;;;0.83;71.08
51195;BME280;37259;49.972;19.850;2024-01-15T03:36:25;96681.6666666667;;;0.83;71.04
51195;BME280;37259;49.972;19.850;2024-01-15T03:37:25;96681.6666666667;;;0.8;71.19
51195;BME280;37259;49.972;19.850;2024-01-15T03:38:26;96675;;;0.84;70.55
51195;BME280;37259;49.972;19.850;2024-01-15T03:39:25;96673.3333333333;;;0.79;71.15
51195;BME280;37259;49.972;19.850;2024-01-15T03:40:25;96676.6666666667;;;0.75;70.99
51195;BME280;37259;49.972;19.850;2024-01-15T03:41:25;96673.3333333333;;;0.73;71.25
51195;BME280;37259;49.972;19.850;2024-01-15T03:42:25;96673.3333333333;;;0.77;70.87
51195;BME280;37259;49.972;19.850;2024-01-15T03:43:25;96670;;;0.78;70.91
51195;BME280;37259;49.972;19.850;2024-01-15T03:44:26;96670;;;0.76;70.62
51195;BME280;37259;49.972;19.850;2024-01-15T03:45:25;96666.6666666667;;;0.8;70.48
51195;BME280;37259;49.972;19.850;2024-01-15T03:46:25;96661.6666666667;;;0.8;70.71
51195;BME280;37259;49.972;19.850;2024-01-15T03:47:25;96661.6666666667;;;0.79;70.61
51195;BME280;37259;49.972;19.850;2024-01-15T03:48:25;96661.6666666667;;;0.79;70.82
51195;BME280;37259;49.972;19.850;2024-01-15T03:49:25;96653.3333333333;;;0.79;70.43
51195;BME280;37259;49.972;19.850;2024-01-15T03:50:25;96651.6666666667;;;0.77;70.82
51195;BME280;37259;49.972;19.850;2024-01-15T03:51:25;96651.6666666667;;;0.77;70.42
51195;BME280;37259;49.972;19.850;2024-01-15T03:52:25;96650;;;0.76;70.78
51195;BME280;37259;49.972;19.850;2024-01-15T03:53:25;96648.3333333333;;;0.79;70.5
51195;BME280;37259;49.972;19.850;2024-01-15T03:54:25;96650;;;0.8;70.44
51195;BME280;37259;49.972;19.850;2024-01-15T03:55:25;96648.3333333333;;;0.81;70.32
51195;BME280;37259;49.972;19.850;2024-01-15T03:56:25;96641.6666666667;;;0.8;70.35
51195;BME280;37259;49.972;19.850;2024-01-15T03:57:25;96648.3333333333;;;0.81;70.37
51195;BME280;37259;49.972;19.850;2024-01-15T03:58:25;96643.3333333333;;;0.82;70.62
51195;BME280;37259;49.972;19.850;2024-01-15T03:59:26;96641.6666666667;;;0.81;70.49
51195;BME280;37259;49.972;19.850;2024-01-15T04:00:25;96641.6666666667;;;0.77;70.6
51195;BME280;37259;49.972;19.850;2024-01-15T04:01:25;96643.3333333333;;;0.79;70.52
51195;BME280;37259;49.972;19.850;2024-01-15T04:02:25;96640;;;0.8;70.53
51195;BME280;37259;49.972;19.850;2024-01-15T04:03:25;96641.6666666667;;;0.8;70.19
51195;BME280;37259;49.972;19.850;2024-01-15T04:04:25;96641.6666666667;;;0.81;70.11
51195;BME280;37259;49.972;19.850;2024-01-15T04:05:25;96641.6666666667;;;0.79;70.17
51195;BME280;37259;49.972;19.850;2024-01-15T04:06:25;96638.3333333333;;;0.8;70.03
51195;BME280;37259;49.972;19.850;2024-01-15T04:07:25;96636.6666666667;;;0.79;70.22
51195;BME280;37259;49.972;19.850;2024-01-15T04:08:25;96640;;;0.78;70.34
51195;BME280;37259;49.972;19.850;2024-01-15T04:09:25;96635;;;0.77;70
51195;BME280;37259;49.972;19.850;2024-01-15T04:10:25;96631.6666666667;;;0.79;70.29
51195;BME280;37259;49.972;19.850;2024-01-15T04:11:25;96631.6666666667;;;0.76;70.13
51195;BME280;37259;49.972;19.850;2024-01-15T04:12:25;96626.6666666667;;;0.73;70.22
51195;BME280;37259;49.972;19.850;2024-01-15T04:13:25;96628.3333333333;;;0.75;70.23
51195;BME280;37259;49.972;19.850;2024-01-15T04:14:25;96628.3333333333;;;0.75;70.36
51195;BME280;37259;49.972;19.850;2024-01-15T04:15:25;96623.3333333333;;;0.73;70.14
51195;BME280;37259;49.972;19.850;2024-01-15T04:16:25;96620;;;0.75;70.38
51195;BME280;37259;49.972;19.850;2024-01-15T04:17:26;96621.6666666667;;;0.69;70.27
51195;BME280;37259;49.972;19.850;2024-01-15T04:18:25;96618.3333333333;;;0.69;70.12
51195;BME280;37259;49.972;19.850;2024-01-15T04:19:25;96618.3333333333;;;0.73;69.75
51195;BME280;37259;49.972;19.850;2024-01-15T04:20:25;96615;;;0.72;69.36
51195;BME280;37259;49.972;19.850;2024-01-15T04:21:25;96613.3333333333;;;0.72;69.56
51195;BME280;37259;49.972;19.850;2024-01-15T04:22:25;96606.6666666667;;;0.71;69.34
51195;BME280;37259;49.972;19.850;2024-01-15T04:23:25;96610;;;0.69;69.45
51195;BME280;37259;49.972;19.850;2024-01-15T04:24:25;96606.6666666667;;;0.73;69.4
51195;BME280;37259;49.972;19.850;2024-01-15T04:25:25;96606.6666666667;;;0.72;69.16
51195;BME280;37259;49.972;19.850;2024-01-15T04:26:25;96603.3333333333;;;0.72;69.33
51195;BME280;37259;49.972;19.850;2024-01-15T04:27:26;96603.3333333333;;;0.69;69.12
51195;BME280;37259;49.972;19.850;2024-01-15T04:28:25;96605;;;0.68;69.23
51195;BME280;37259;49.972;19.850;2024-01-15T04:29:25;96601.6666666667;;;0.68;68.98
51195;BME280;37259;49.972;19.850;2024-01-15T04:30:25;96601.6666666667;;;0.68;69.23
51195;BME280;37259;49.972;19.850;2024-01-15T04:31:25;96603.3333333333;;;0.69;69.22
51195;BME280;37259;49.972;19.850;2024-01-15T04:32:25;96605;;;0.7;68.88
51195;BME280;37259;49.972;19.850;2024-01-15T04:33:25;96603.3333333333;;;0.69;69.27
51195;BME280;37259;49.972;19.850;2024-01-15T04:34:25;96600;;;0.71;69.21
51195;BME280;37259;49.972;19.850;2024-01-15T04:35:25;96601.6666666667;;;0.73;68.8
51195;BME280;37259;49.972;19.850;2024-01-15T04:36:25;96600;;;0.76;68.99
51195;BME280;37259;49.972;19.850;2024-01-15T04:37:25;96601.6666666667;;;0.77;68.84
51195;BME280;37259;49.972;19.850;2024-01-15T04:38:25;96600;;;0.79;68.78
51195;BME280;37259;49.972;19.850;2024-01-15T04:39:25;96596.6666666667;;;0.8;68.82
51195;BME280;37259;49.972;19.850;2024-01-15T04:40:25;96598.3333333333;;;0.82;69.15
51195;BME280;37259;49.972;19.850;2024-01-15T04:41:25;96601.6666666667;;;0.82;68.93
51195;BME280;37259;49.972;19.850;2024-01-15T04:42:25;96600;;;0.86;68.44
51195;BME280;37259;49.972;19.850;2024-01-15T04:43:25;96596.6666666667;;;0.88;68.44
51195;BME280;37259;49.972;19.850;2024-01-15T04:44:25;96593.3333333333;;;0.88;68.71
51195;BME280;37259;49.972;19.850;2024-01-15T04:45:25;96595;;;0.91;68.86
51195;BME280;37259;49.972;19.850;2024-01-15T04:46:25;96596.6666666667;;;0.87;68.74
51195;BME280;37259;49.972;19.850;2024-01-15T04:47:25;96590;;;0.87;69.01
51195;BME280;37259;49.972;19.850;2024-01-15T04:48:25;96595;;;0.88;68.57
51195;BME280;37259;49.972;19.850;2024-01-15T04:49:25;96595;;;0.87;69.28
51195;BME280;37259;49.972;19.850;2024-01-15T04:50:25;96595;;;0.88;68.81
51195;BME280;37259;49.972;19.850;2024-01-15T04:51:25;96596.6666666667;;;0.89;69.09
51195;BME280;37259;49.972;19.850;2024-01-15T04:52:25;96595;;;0.88;69.27
51195;BME280;37259;49.972;19.850;2024-01-15T04:53:25;96598.3333333333;;;0.87;69.24
51195;BME280;37259;49.972;19.850;2024-01-15T04:54:25;96600;;;0.87;68.77
51195;BME280;37259;49.972;19.850;2024-01-15T04:55:25;96601.6666666667;;;0.89;68.76
51195;BME280;37259;49.972;19.850;2024-01-15T04:56:25;96593.3333333333;;;0.91;68.99
51195;BME280;37259;49.972;19.850;2024-01-15T04:57:25;96595;;;0.91;69.03
51195;BME280;37259;49.972;19.850;2024-01-15T04:58:25;96595;;;0.94;68.78
51195;BME280;37259;49.972;19.850;2024-01-15T04:59:25;96595;;;0.95;69.29
51195;BME280;37259;49.972;19.850;2024-01-15T05:00:25;96595;;;0.94;68.84